Time;durP1;ratioP1;P1;durP2;ratioP2;P2;SDS_P1;SDS_P2;PMS_P1;PMS_P2;Temp;Humidity;BMP_temperature;BMP_pressure;BME280_temperature;BME280_humidity;BME280_pressure;Samples;Min_cycle;Max_cycle;Signal;HPM_P1;HPM_P2
2023/05/03 00:02:09;;;;;;;6.35;2.10;;;;;;;;;;5054534;28;20444;-83
2023/05/03 00:04:39;;;;;;;5.60;2.20;;;;;;;;;;5063292;28;20432;-83
2023/05/03 00:07:07;;;;;;;5.50;2.10;;;;;;;;;;5063305;28;20496;-83
2023/05/03 00:09:35;;;;;;;8.18;2.38;;;;;;;;;;5053347;28;20419;-83
2023/05/03 00:12:07;;;;;;;7.93;2.30;;;;;;;;;;5058733;28;20421;-83
2023/05/03 00:14:35;;;;;;;5.05;1.92;;;;;;;;;;5079468;28;20420;-83
2023/05/03 00:17:03;;;;;;;7.05;2.10;;;;;;;;;;5059243;28;20423;-83
2023/05/03 00:19:36;;;;;;;5.85;2.10;;;;;;;;;;5058515;28;20427;-83
2023/05/03 00:22:06;;;;;;;6.35;2.25;;;;;;;;;;5057064;28;20422;-83
2023/05/03 00:24:34;;;;;;;6.95;2.03;;;;;;;;;;5052348;28;20420;-83
2023/05/03 00:27:06;;;;;;;8.20;2.30;;;;;;;;;;5053589;28;20452;-83
2023/05/03 00:29:34;;;;;;;8.35;2.20;;;;;;;;;;5056859;28;20421;-82
2023/05/03 00:32:09;;;;;;;8.70;2.45;;;;;;;;;;5055798;28;20487;-82
2023/05/03 00:34:37;;;;;;;7.45;2.50;;;;;;;;;;5058255;28;20425;-83
2023/05/03 00:37:08;;;;;;;6.82;2.30;;;;;;;;;;5054455;28;20789;-83
2023/05/03 00:39:35;;;;;;;7.38;2.25;;;;;;;;;;5063888;28;20449;-83
2023/05/03 00:42:03;;;;;;;7.20;2.50;;;;;;;;;;5053380;28;20432;-82
2023/05/03 00:44:31;;;;;;;6.60;2.22;;;;;;;;;;5062277;28;20432;-83
2023/05/03 00:47:00;;;;;;;10.20;2.38;;;;;;;;;;5061494;28;20427;-83
2023/05/03 00:49:33;;;;;;;6.18;2.13;;;;;;;;;;5053934;28;21097;-83
2023/05/03 00:52:01;;;;;;;8.93;2.35;;;;;;;;;;5059023;28;21281;-83
2023/05/03 00:54:31;;;;;;;7.75;2.35;;;;;;;;;;5053684;28;20433;-82
2023/05/03 00:57:00;;;;;;;9.23;2.50;;;;;;;;;;5055422;28;20467;-83
2023/05/03 00:59:28;;;;;;;5.10;2.20;;;;;;;;;;5055812;28;20425;-82
2023/05/03 01:02:01;;;;;;;8.27;2.22;;;;;;;;;;5054731;28;20437;-82
2023/05/03 01:04:35;;;;;;;5.97;2.20;;;;;;;;;;5055348;28;20421;-83
2023/05/03 01:07:09;;;;;;;7.05;2.20;;;;;;;;;;5052921;28;20429;-82
2023/05/03 01:09:43;;;;;;;7.95;2.47;;;;;;;;;;5074000;28;20440;-82
2023/05/03 01:12:19;;;;;;;7.45;2.30;;;;;;;;;;5059366;28;20437;-83
2023/05/03 01:14:53;;;;;;;9.55;2.40;;;;;;;;;;5055560;28;20424;-82
2023/05/03 01:17:28;;;;;;;6.37;2.50;;;;;;;;;;5059032;28;20429;-83
2023/05/03 01:19:57;;;;;;;8.07;2.30;;;;;;;;;;5052574;28;20424;-82
2023/05/03 01:22:29;;;;;;;6.82;2.33;;;;;;;;;;5052316;28;20438;-82
2023/05/03 01:25:01;;;;;;;8.10;2.40;;;;;;;;;;5053572;28;20421;-82
2023/05/03 01:27:34;;;;;;;8.85;2.70;;;;;;;;;;5056937;28;20440;-82
2023/05/03 01:30:07;;;;;;;6.53;2.40;;;;;;;;;;5052301;28;21107;-83
2023/05/03 01:32:41;;;;;;;6.43;2.45;;;;;;;;;;5052531;28;20421;-82
2023/05/03 01:35:19;;;;;;;7.50;2.80;;;;;;;;;;5062001;28;20432;-82
2023/05/03 01:37:47;;;;;;;7.85;2.50;;;;;;;;;;5064710;28;20410;-82
2023/05/03 01:40:22;;;;;;;7.95;2.38;;;;;;;;;;5061102;28;20413;-82
2023/05/03 01:42:56;;;;;;;8.48;2.38;;;;;;;;;;5054905;28;20425;-82
2023/05/03 01:45:24;;;;;;;8.00;2.47;;;;;;;;;;5057546;28;20891;-83
2023/05/03 01:47:57;;;;;;;6.13;2.45;;;;;;;;;;5063497;28;20419;-82
2023/05/03 01:50:25;;;;;;;6.70;2.60;;;;;;;;;;5056487;28;20430;-82
2023/05/03 01:52:57;;;;;;;8.73;2.45;;;;;;;;;;5060370;28;20432;-82
2023/05/03 01:55:26;;;;;;;8.13;2.60;;;;;;;;;;5060897;28;20437;-82
2023/05/03 01:57:54;;;;;;;7.65;2.72;;;;;;;;;;5055241;28;20409;-83
2023/05/03 02:00:27;;;;;;;6.75;2.47;;;;;;;;;;5057743;28;20427;-82
2023/05/03 02:03:00;;;;;;;6.40;2.58;;;;;;;;;;5054477;28;20432;-82
2023/05/03 02:05:28;;;;;;;6.45;2.28;;;;;;;;;;5052597;28;20430;-83
2023/05/03 02:08:00;;;;;;;6.95;2.53;;;;;;;;;;5060174;28;21193;-83
2023/05/03 02:10:36;;;;;;;8.77;2.65;;;;;;;;;;5061090;28;20417;-83
2023/05/03 02:13:03;;;;;;;6.53;2.58;;;;;;;;;;5053625;28;20428;-82
2023/05/03 02:15:36;;;;;;;7.93;2.60;;;;;;;;;;5058080;28;20396;-83
2023/05/03 02:18:04;;;;;;;9.13;2.88;;;;;;;;;;5054287;28;20418;-82
2023/05/03 02:20:37;;;;;;;8.67;2.70;;;;;;;;;;5055396;28;20432;-83
2023/05/03 02:23:10;;;;;;;7.90;2.53;;;;;;;;;;5054582;28;20436;-82
2023/05/03 02:25:44;;;;;;;8.43;2.70;;;;;;;;;;5055031;28;20593;-82
2023/05/03 02:28:17;;;;;;;9.98;2.60;;;;;;;;;;5060248;28;20417;-83
2023/05/03 02:30:44;;;;;;;7.07;2.55;;;;;;;;;;5060005;28;20408;-82
2023/05/03 02:33:17;;;;;;;8.57;2.55;;;;;;;;;;5061060;28;20429;-82
2023/05/03 02:35:46;;;;;;;8.13;2.50;;;;;;;;;;5054511;28;20775;-84
2023/05/03 02:38:19;;;;;;;6.80;2.40;;;;;;;;;;5055338;28;20432;-83
2023/05/03 02:40:48;;;;;;;7.15;2.45;;;;;;;;;;5058680;28;20430;-82
2023/05/03 02:43:20;;;;;;;7.20;2.38;;;;;;;;;;5052910;28;20425;-82
2023/05/03 02:45:48;;;;;;;8.23;2.50;;;;;;;;;;5059873;28;20416;-82
2023/05/03 02:48:17;;;;;;;8.30;2.40;;;;;;;;;;5060663;28;20467;-82
2023/05/03 02:50:44;;;;;;;9.88;2.50;;;;;;;;;;5055502;28;20422;-82
2023/05/03 02:53:12;;;;;;;10.93;2.70;;;;;;;;;;5054525;28;20859;-82
2023/05/03 02:55:40;;;;;;;8.07;2.58;;;;;;;;;;5063596;28;21090;-83
2023/05/03 02:58:09;;;;;;;8.80;2.30;;;;;;;;;;5053969;28;20920;-82
2023/05/03 03:00:42;;;;;;;7.82;2.40;;;;;;;;;;5052920;28;20421;-83
2023/05/03 03:03:10;;;;;;;11.70;2.50;;;;;;;;;;5065824;28;20919;-82
2023/05/03 03:05:39;;;;;;;6.82;2.30;;;;;;;;;;5053857;28;20940;-83
2023/05/03 03:08:07;;;;;;;7.50;2.30;;;;;;;;;;5069539;28;20425;-82
2023/05/03 03:10:35;;;;;;;9.75;2.58;;;;;;;;;;5050709;28;20414;-82
2023/05/03 03:13:03;;;;;;;6.00;2.20;;;;;;;;;;5051967;28;20440;-82
2023/05/03 03:15:38;;;;;;;8.45;2.60;;;;;;;;;;5059428;28;20440;-82
2023/05/03 03:18:11;;;;;;;10.13;2.70;;;;;;;;;;5062697;28;20434;-82
2023/05/03 03:20:39;;;;;;;13.32;2.80;;;;;;;;;;5057780;28;20417;-83
2023/05/03 03:23:07;;;;;;;8.75;2.47;;;;;;;;;;5051357;28;20432;-82
2023/05/03 03:25:34;;;;;;;9.75;2.65;;;;;;;;;;5053124;28;20415;-83
2023/05/03 03:28:02;;;;;;;12.60;2.90;;;;;;;;;;5060044;28;20433;-82
2023/05/03 03:30:31;;;;;;;7.00;2.40;;;;;;;;;;5059878;28;20435;-83
2023/05/03 03:33:17;;;;;;;7.90;2.60;;;;;;;;;;5061876;28;20425;-82
2023/05/03 03:35:45;;;;;;;5.63;2.30;;;;;;;;;;5062125;28;20429;-83
2023/05/03 03:38:13;;;;;;;7.93;2.53;;;;;;;;;;5065956;28;20433;-84
2023/05/03 03:40:49;;;;;;;8.38;2.60;;;;;;;;;;5065002;28;20425;-83
2023/05/03 03:43:22;;;;;;;9.38;2.67;;;;;;;;;;5058777;28;21466;-83
2023/05/03 03:45:54;;;;;;;8.38;2.63;;;;;;;;;;5074489;28;21566;-83
2023/05/03 03:48:29;;;;;;;7.13;2.53;;;;;;;;;;5057601;28;21221;-83
2023/05/03 03:50:56;;;;;;;8.05;2.22;;;;;;;;;;5058732;28;20421;-82
2023/05/03 03:53:36;;;;;;;8.80;2.60;;;;;;;;;;5068628;28;21301;-83
2023/05/03 03:56:05;;;;;;;8.23;2.70;;;;;;;;;;5065550;28;20761;-83
2023/05/03 03:58:33;;;;;;;7.63;2.55;;;;;;;;;;5057791;28;20429;-83
2023/05/03 04:01:08;;;;;;;10.00;2.60;;;;;;;;;;5060137;28;20427;-83
2023/05/03 04:03:38;;;;;;;7.75;2.63;;;;;;;;;;5058533;28;20421;-83
2023/05/03 04:06:11;;;;;;;8.13;3.03;;;;;;;;;;5060880;28;20958;-83
2023/05/03 04:08:39;;;;;;;10.82;2.85;;;;;;;;;;5063890;28;20761;-82
2023/05/03 04:11:13;;;;;;;7.18;2.42;;;;;;;;;;5064866;28;20427;-83
2023/05/03 04:13:51;;;;;;;7.43;2.13;;;;;;;;;;5056306;28;20429;-83
2023/05/03 04:16:19;;;;;;;10.15;2.55;;;;;;;;;;5059105;28;20424;-83
2023/05/03 04:18:53;;;;;;;7.87;2.60;;;;;;;;;;5058676;28;20929;-83
2023/05/03 04:21:22;;;;;;;9.85;2.60;;;;;;;;;;5062759;28;20901;-83
2023/05/03 04:23:55;;;;;;;10.75;2.72;;;;;;;;;;5054230;28;20893;-82
2023/05/03 04:26:28;;;;;;;10.75;2.53;;;;;;;;;;5065355;28;20420;-83
2023/05/03 04:29:11;;;;;;;7.50;2.50;;;;;;;;;;5065732;28;20913;-83
2023/05/03 04:31:40;;;;;;;8.48;2.60;;;;;;;;;;5059522;28;20425;-83
2023/05/03 04:34:13;;;;;;;9.10;2.38;;;;;;;;;;5065854;28;20917;-84
2023/05/03 04:36:44;;;;;;;9.50;2.33;;;;;;;;;;5052172;28;20425;-82
2023/05/03 04:39:14;;;;;;;9.02;2.30;;;;;;;;;;5057700;28;20433;-83
2023/05/03 04:41:43;;;;;;;8.10;2.30;;;;;;;;;;5066464;28;20455;-83
2023/05/03 04:44:16;;;;;;;7.47;2.30;;;;;;;;;;5054387;28;20433;-83
2023/05/03 04:46:45;;;;;;;9.18;2.42;;;;;;;;;;5062545;28;20432;-82
2023/05/03 04:49:19;;;;;;;8.70;2.43;;;;;;;;;;5064710;28;20508;-83
2023/05/03 04:51:47;;;;;;;6.97;2.30;;;;;;;;;;5055156;28;20420;-83
2023/05/03 04:54:16;;;;;;;7.20;2.43;;;;;;;;;;5066498;28;20411;-83
2023/05/03 04:56:48;;;;;;;7.57;2.10;;;;;;;;;;5058584;28;20421;-83
2023/05/03 04:59:18;;;;;;;9.73;2.40;;;;;;;;;;5061551;28;20419;-84
2023/05/03 05:01:47;;;;;;;9.75;2.40;;;;;;;;;;5056458;28;21098;-83
2023/05/03 05:04:21;;;;;;;8.38;2.10;;;;;;;;;;5060911;28;20425;-82
2023/05/03 05:06:54;;;;;;;8.93;2.33;;;;;;;;;;5061203;28;20416;-83
2023/05/03 05:09:30;;;;;;;8.57;1.90;;;;;;;;;;5055977;28;20420;-83
2023/05/03 05:12:04;;;;;;;8.20;2.20;;;;;;;;;;5058187;28;20409;-83
2023/05/03 05:14:40;;;;;;;6.18;2.10;;;;;;;;;;5066517;28;20421;-83
2023/05/03 05:17:08;;;;;;;5.47;1.80;;;;;;;;;;5065569;28;20421;-83
2023/05/03 05:19:43;;;;;;;8.40;2.00;;;;;;;;;;5054828;28;20437;-84
2023/05/03 05:22:11;;;;;;;10.05;2.22;;;;;;;;;;5057644;28;20421;-83
2023/05/03 05:24:44;;;;;;;6.28;2.15;;;;;;;;;;5061271;28;20425;-82
2023/05/03 05:27:13;;;;;;;8.77;2.35;;;;;;;;;;5057419;28;20440;-83
2023/05/03 05:29:41;;;;;;;7.82;2.50;;;;;;;;;;5056857;28;20429;-83
2023/05/03 05:32:09;;;;;;;7.90;2.10;;;;;;;;;;5062237;28;20415;-84
2023/05/03 05:34:50;;;;;;;7.57;2.30;;;;;;;;;;5057218;28;20430;-83
2023/05/03 05:37:41;;;;;;;10.32;2.28;;;;;;;;;;5057228;28;20430;-83
2023/05/03 05:40:10;;;;;;;7.10;2.13;;;;;;;;;;5060687;28;20433;-83
2023/05/03 05:42:45;;;;;;;6.77;2.10;;;;;;;;;;5060046;28;20420;-84
2023/05/03 05:45:13;;;;;;;7.40;2.10;;;;;;;;;;5058123;28;20423;-84
2023/05/03 05:47:42;;;;;;;9.23;1.92;;;;;;;;;;5056444;28;20411;-83
2023/05/03 05:50:16;;;;;;;8.95;1.98;;;;;;;;;;5057826;28;20437;-83
2023/05/03 05:52:46;;;;;;;6.97;2.20;;;;;;;;;;5054316;28;21191;-84
2023/05/03 05:55:15;;;;;;;9.10;2.08;;;;;;;;;;5055939;28;20425;-83
2023/05/03 05:57:48;;;;;;;6.32;1.90;;;;;;;;;;5055746;28;20426;-83
2023/05/03 06:00:25;;;;;;;6.03;1.90;;;;;;;;;;5057930;28;20766;-85
2023/05/03 06:02:55;;;;;;;6.90;2.17;;;;;;;;;;5057285;28;20432;-85
2023/05/03 06:05:24;;;;;;;8.07;2.10;;;;;;;;;;5062001;28;20432;-84
2023/05/03 06:07:53;;;;;;;5.72;1.90;;;;;;;;;;5058563;28;20425;-84
2023/05/03 06:10:22;;;;;;;6.13;1.80;;;;;;;;;;5075774;28;20437;-85
2023/05/03 06:12:52;;;;;;;6.30;1.95;;;;;;;;;;5058414;28;20439;-84
2023/05/03 06:15:24;;;;;;;6.90;1.98;;;;;;;;;;5060604;28;20436;-83
2023/05/03 06:17:52;;;;;;;6.10;1.90;;;;;;;;;;5053520;28;20431;-82
2023/05/03 06:20:19;;;;;;;6.15;1.70;;;;;;;;;;5054275;28;21573;-84
2023/05/03 06:22:51;;;;;;;7.18;2.08;;;;;;;;;;5056332;28;20424;-83
2023/05/03 06:25:24;;;;;;;5.93;1.90;;;;;;;;;;5058764;28;20448;-83
2023/05/03 06:27:57;;;;;;;5.68;1.90;;;;;;;;;;5058612;28;20438;-81
2023/05/03 06:30:29;;;;;;;8.43;2.10;;;;;;;;;;5065069;28;20776;-84
2023/05/03 06:33:04;;;;;;;5.90;1.80;;;;;;;;;;5058473;28;20421;-84
2023/05/03 06:35:32;;;;;;;6.90;1.80;;;;;;;;;;5059213;28;20523;-83
2023/05/03 06:38:01;;;;;;;5.22;1.90;;;;;;;;;;5043986;28;21111;-84
2023/05/03 06:40:29;;;;;;;6.32;1.60;;;;;;;;;;5042901;28;20459;-84
2023/05/03 06:42:56;;;;;;;8.80;2.17;;;;;;;;;;5051656;28;20431;-83
2023/05/03 06:45:43;;;;;;;7.00;1.60;;;;;;;;;;5043754;28;20423;-83
2023/05/03 06:48:16;;;;;;;3.90;1.50;;;;;;;;;;5044885;28;20435;-84
2023/05/03 06:50:50;;;;;;;4.75;1.75;;;;;;;;;;5048312;28;20449;-82
2023/05/03 06:53:19;;;;;;;4.85;1.30;;;;;;;;;;5047253;28;20435;-83
2023/05/03 06:55:46;;;;;;;5.38;1.40;;;;;;;;;;5044035;28;21194;-82
2023/05/03 06:58:15;;;;;;;5.03;1.48;;;;;;;;;;5040225;28;20439;-85
2023/05/03 07:00:43;;;;;;;7.10;1.30;;;;;;;;;;5046065;28;20430;-82
2023/05/03 07:03:11;;;;;;;4.85;1.30;;;;;;;;;;5042020;28;20420;-83
2023/05/03 07:05:38;;;;;;;6.47;1.40;;;;;;;;;;5042045;28;20430;-83
2023/05/03 07:08:06;;;;;;;4.72;1.23;;;;;;;;;;5064459;28;20438;-81
2023/05/03 07:10:35;;;;;;;5.68;1.05;;;;;;;;;;5053668;28;20486;-82
2023/05/03 07:13:03;;;;;;;5.25;1.08;;;;;;;;;;5045737;28;20427;-84
2023/05/03 07:15:31;;;;;;;5.18;1.35;;;;;;;;;;5047924;28;20427;-82
2023/05/03 07:18:04;;;;;;;5.93;1.38;;;;;;;;;;5050281;28;20435;-83
2023/05/03 07:20:31;;;;;;;5.78;1.38;;;;;;;;;;5043119;28;20797;-84
2023/05/03 07:23:00;;;;;;;5.22;1.40;;;;;;;;;;5055888;28;20444;-82
2023/05/03 07:25:28;;;;;;;5.15;1.50;;;;;;;;;;5050837;28;20433;-82
2023/05/03 07:28:02;;;;;;;3.88;1.30;;;;;;;;;;5050248;28;21210;-84
2023/05/03 07:30:30;;;;;;;5.70;1.20;;;;;;;;;;5048716;28;20438;-83
2023/05/03 07:32:58;;;;;;;4.32;1.25;;;;;;;;;;5051613;28;20442;-81
2023/05/03 07:35:27;;;;;;;5.95;1.30;;;;;;;;;;5049300;28;20452;-81
2023/05/03 07:38:00;;;;;;;5.70;1.40;;;;;;;;;;5039822;28;20458;-81
2023/05/03 07:40:32;;;;;;;6.47;1.48;;;;;;;;;;5040313;28;21252;-83
2023/05/03 07:43:00;;;;;;;6.07;1.50;;;;;;;;;;5046996;28;20439;-83
2023/05/03 07:45:34;;;;;;;2.95;1.23;;;;;;;;;;5049572;28;20427;-81
2023/05/03 07:48:07;;;;;;;4.13;1.33;;;;;;;;;;5044334;28;20431;-82
2023/05/03 07:50:41;;;;;;;4.53;1.27;;;;;;;;;;5047518;28;21399;-82
2023/05/03 07:53:09;;;;;;;6.03;1.52;;;;;;;;;;5050139;28;20450;-82
2023/05/03 07:55:37;;;;;;;4.70;1.55;;;;;;;;;;5050889;28;21686;-82
2023/05/03 07:58:09;;;;;;;4.07;1.38;;;;;;;;;;5050976;28;21648;-83
2023/05/03 08:00:39;;;;;;;5.70;1.60;;;;;;;;;;5041957;28;20442;-81
2023/05/03 08:03:07;;;;;;;4.32;1.30;;;;;;;;;;5049927;28;20433;-83
2023/05/03 08:05:39;;;;;;;4.78;1.30;;;;;;;;;;5048571;28;21205;-81
2023/05/03 08:08:07;;;;;;;6.88;1.38;;;;;;;;;;5054627;28;20424;-81
2023/05/03 08:10:36;;;;;;;1.65;1.10;;;;;;;;;;5046375;28;21215;-83
2023/05/03 08:13:10;;;;;;;3.27;1.10;;;;;;;;;;5042948;28;20466;-82
2023/05/03 08:15:39;;;;;;;5.78;1.55;;;;;;;;;;5044193;28;20424;-81
2023/05/03 08:18:07;;;;;;;3.90;1.33;;;;;;;;;;5022052;28;20440;-83
2023/05/03 08:20:36;;;;;;;7.50;1.50;;;;;;;;;;5024161;28;20925;-82
2023/05/03 08:23:04;;;;;;;9.32;2.60;;;;;;;;;;5022304;28;20456;-83
2023/05/03 08:25:32;;;;;;;4.15;1.45;;;;;;;;;;5020836;28;20444;-82
2023/05/03 08:28:00;;;;;;;3.53;1.10;;;;;;;;;;5022469;28;20425;-82
2023/05/03 08:30:29;;;;;;;4.95;1.27;;;;;;;;;;5025191;28;21043;-82
2023/05/03 08:33:03;;;;;;;5.22;1.55;;;;;;;;;;5021037;28;20423;-81
2023/05/03 08:35:31;;;;;;;4.07;1.20;;;;;;;;;;5030875;28;20429;-83
2023/05/03 08:38:04;;;;;;;4.47;1.10;;;;;;;;;;5028567;28;21141;-81
2023/05/03 08:40:38;;;;;;;3.57;1.20;;;;;;;;;;5027103;28;20433;-83
2023/05/03 08:43:07;;;;;;;3.90;1.25;;;;;;;;;;5023104;28;20429;-81
2023/05/03 08:45:40;;;;;;;3.05;1.10;;;;;;;;;;5022353;28;20437;-82
2023/05/03 08:48:14;;;;;;;2.28;1.08;;;;;;;;;;5022476;28;20430;-81
2023/05/03 08:50:48;;;;;;;5.30;1.40;;;;;;;;;;5027250;28;20429;-83
2023/05/03 08:53:21;;;;;;;4.95;1.50;;;;;;;;;;5026248;28;20438;-81
2023/05/03 08:55:49;;;;;;;4.33;1.20;;;;;;;;;;5031982;28;20433;-82
2023/05/03 08:58:22;;;;;;;3.65;1.13;;;;;;;;;;5030976;28;20437;-81
2023/05/03 09:00:55;;;;;;;2.63;1.10;;;;;;;;;;5029567;28;20442;-82
2023/05/03 09:03:24;;;;;;;3.25;1.20;;;;;;;;;;5020499;28;20774;-82
2023/05/03 09:05:52;;;;;;;3.90;1.23;;;;;;;;;;5023284;28;20429;-81
2023/05/03 09:08:24;;;;;;;4.72;1.10;;;;;;;;;;5040482;28;20427;-82
2023/05/03 09:10:57;;;;;;;5.22;1.20;;;;;;;;;;5041337;28;20898;-83
2023/05/03 09:13:30;;;;;;;4.45;1.33;;;;;;;;;;5038475;28;20434;-83
2023/05/03 09:16:03;;;;;;;5.05;1.20;;;;;;;;;;5039991;28;20434;-82
2023/05/03 09:18:38;;;;;;;3.75;1.30;;;;;;;;;;5041430;28;20450;-83
2023/05/03 09:21:06;;;;;;;4.18;1.33;;;;;;;;;;5043197;28;20403;-82
2023/05/03 09:23:34;;;;;;;4.10;1.25;;;;;;;;;;5054467;28;20434;-82
2023/05/03 09:26:07;;;;;;;3.30;1.20;;;;;;;;;;5037731;28;20431;-82
2023/05/03 09:28:40;;;;;;;3.10;1.10;;;;;;;;;;5057269;28;20430;-84
2023/05/03 09:31:08;;;;;;;4.53;1.30;;;;;;;;;;5040953;28;20927;-82
2023/05/03 09:33:36;;;;;;;4.03;1.20;;;;;;;;;;5043911;28;20887;-82
2023/05/03 09:36:05;;;;;;;4.50;1.40;;;;;;;;;;5039116;28;20432;-82
2023/05/03 09:38:38;;;;;;;5.28;1.25;;;;;;;;;;5040198;28;20433;-83
2023/05/03 09:41:06;;;;;;;3.35;1.15;;;;;;;;;;5041775;28;20934;-83
2023/05/03 09:43:48;;;;;;;2.90;1.20;;;;;;;;;;5038522;28;20425;-82
2023/05/03 09:46:16;;;;;;;3.03;1.40;;;;;;;;;;5037638;28;20426;-84
2023/05/03 09:48:44;;;;;;;3.92;1.27;;;;;;;;;;5046050;28;20427;-82
2023/05/03 09:51:13;;;;;;;5.45;1.30;;;;;;;;;;5041726;28;20911;-82
2023/05/03 09:53:46;;;;;;;5.63;1.48;;;;;;;;;;5038396;28;20430;-83
2023/05/03 09:56:14;;;;;;;8.07;1.38;;;;;;;;;;5036695;28;20755;-82
2023/05/03 09:58:42;;;;;;;2.30;1.33;;;;;;;;;;5039308;28;20432;-82
2023/05/03 10:01:10;;;;;;;2.58;1.13;;;;;;;;;;5041278;28;20436;-83
2023/05/03 10:03:44;;;;;;;5.47;1.33;;;;;;;;;;5039470;28;20427;-82
2023/05/03 10:06:19;;;;;;;3.85;1.20;;;;;;;;;;5039222;28;20425;-83
2023/05/03 10:08:49;;;;;;;3.80;1.10;;;;;;;;;;5054845;28;20427;-83
2023/05/03 10:11:23;;;;;;;3.00;1.30;;;;;;;;;;5038604;28;20409;-82
2023/05/03 10:13:56;;;;;;;3.28;1.30;;;;;;;;;;5042166;28;20440;-82
2023/05/03 10:16:26;;;;;;;5.25;1.40;;;;;;;;;;5042031;28;20406;-83
2023/05/03 10:19:06;;;;;;;5.32;1.13;;;;;;;;;;5042841;28;20926;-83
2023/05/03 10:21:42;;;;;;;5.33;1.30;;;;;;;;;;5036876;28;20816;-83
2023/05/03 10:24:15;;;;;;;4.22;1.20;;;;;;;;;;5050634;28;20434;-84
2023/05/03 10:26:44;;;;;;;4.45;1.48;;;;;;;;;;5032983;28;20440;-83
2023/05/03 10:29:31;;;;;;;4.40;1.40;;;;;;;;;;5032730;28;20426;-83
2023/05/03 10:32:04;;;;;;;4.85;1.25;;;;;;;;;;5037870;28;20436;-83
2023/05/03 10:34:33;;;;;;;5.32;1.40;;;;;;;;;;5042119;28;20441;-82
2023/05/03 10:37:02;;;;;;;3.00;1.30;;;;;;;;;;5033461;28;20425;-81
2023/05/03 10:39:30;;;;;;;3.83;1.20;;;;;;;;;;5038969;28;20423;-82
2023/05/03 10:42:06;;;;;;;5.67;1.23;;;;;;;;;;5036966;28;20427;-83
2023/05/03 10:44:35;;;;;;;3.25;1.20;;;;;;;;;;5034029;28;20442;-83
2023/05/03 10:47:13;;;;;;;2.80;1.20;;;;;;;;;;5034673;28;20437;-83
2023/05/03 10:49:46;;;;;;;2.58;1.17;;;;;;;;;;5040348;28;20433;-83
2023/05/03 10:52:32;;;;;;;4.20;1.37;;;;;;;;;;5034041;28;20423;-83
2023/05/03 10:55:10;;;;;;;4.85;1.25;;;;;;;;;;5039462;28;20434;-82
2023/05/03 10:57:40;;;;;;;2.88;1.20;;;;;;;;;;5035612;28;20435;-83
2023/05/03 11:00:15;;;;;;;5.03;1.45;;;;;;;;;;5039219;28;20430;-82
2023/05/03 11:03:02;;;;;;;5.05;1.30;;;;;;;;;;5036417;28;20427;-82
2023/05/03 11:05:36;;;;;;;5.93;1.50;;;;;;;;;;5034553;28;20423;-82
2023/05/03 11:08:10;;;;;;;3.22;1.40;;;;;;;;;;5035803;28;20966;-80
2023/05/03 11:10:45;;;;;;;6.70;1.38;;;;;;;;;;5040887;28;20903;-82
2023/05/03 11:13:13;;;;;;;6.30;1.70;;;;;;;;;;5040038;28;20434;-81
2023/05/03 11:15:41;;;;;;;4.13;1.60;;;;;;;;;;5038133;28;20434;-82
2023/05/03 11:18:13;;;;;;;5.85;1.60;;;;;;;;;;5035006;28;20975;-82
2023/05/03 11:20:46;;;;;;;3.80;1.38;;;;;;;;;;5036861;28;20779;-83
2023/05/03 11:23:14;;;;;;;3.03;1.40;;;;;;;;;;5037642;28;20434;-83
2023/05/03 11:25:48;;;;;;;3.72;1.40;;;;;;;;;;5038228;28;20767;-83
2023/05/03 11:28:21;;;;;;;4.00;1.45;;;;;;;;;;5038017;28;20431;-83
2023/05/03 11:30:49;;;;;;;5.60;1.80;;;;;;;;;;5038220;28;20918;-83
2023/05/03 11:33:22;;;;;;;5.78;1.40;;;;;;;;;;5037257;28;20438;-84
2023/05/03 11:35:55;;;;;;;3.80;1.33;;;;;;;;;;5034243;28;20427;-83
2023/05/03 11:38:27;;;;;;;3.92;1.33;;;;;;;;;;5038021;28;20906;-81
2023/05/03 11:40:57;;;;;;;5.20;1.50;;;;;;;;;;5034011;28;20438;-81
2023/05/03 11:43:29;;;;;;;3.90;1.42;;;;;;;;;;5036221;28;20433;-81
2023/05/03 11:45:58;;;;;;;5.78;1.40;;;;;;;;;;5035702;28;20425;-82
2023/05/03 11:48:27;;;;;;;4.55;1.52;;;;;;;;;;5039881;28;20437;-81
2023/05/03 11:51:00;;;;;;;4.50;1.40;;;;;;;;;;5059283;28;20447;-82
2023/05/03 11:53:33;;;;;;;6.43;1.52;;;;;;;;;;5037247;28;20430;-82
2023/05/03 11:56:09;;;;;;;4.32;1.30;;;;;;;;;;5042537;28;20435;-83
2023/05/03 11:58:48;;;;;;;6.03;1.67;;;;;;;;;;5043718;28;20431;-83
2023/05/03 12:01:22;;;;;;;3.03;1.20;;;;;;;;;;5037124;28;20506;-82
2023/05/03 12:03:58;;;;;;;4.35;1.40;;;;;;;;;;5054519;28;20922;-82
2023/05/03 12:06:32;;;;;;;4.18;1.30;;;;;;;;;;5042624;28;20885;-82
2023/05/03 12:09:13;;;;;;;4.15;1.60;;;;;;;;;;5048531;28;20444;-82
2023/05/03 12:11:42;;;;;;;3.75;1.35;;;;;;;;;;5021100;28;20440;-81
2023/05/03 12:14:18;;;;;;;5.35;1.45;;;;;;;;;;5028205;28;20429;-81
2023/05/03 12:16:47;;;;;;;4.45;1.38;;;;;;;;;;5036429;28;20444;-83
2023/05/03 12:19:22;;;;;;;4.57;1.50;;;;;;;;;;5026634;28;20424;-82
2023/05/03 12:21:50;;;;;;;5.13;1.45;;;;;;;;;;5021562;28;20418;-83
2023/05/03 12:24:23;;;;;;;4.50;1.40;;;;;;;;;;5032025;28;21063;-83
2023/05/03 12:26:52;;;;;;;4.22;1.48;;;;;;;;;;5030338;28;20429;-82
2023/05/03 12:29:26;;;;;;;4.37;1.37;;;;;;;;;;5029887;28;21137;-82
2023/05/03 12:31:54;;;;;;;4.50;1.60;;;;;;;;;;5021184;28;20433;-83
2023/05/03 12:34:22;;;;;;;4.13;1.40;;;;;;;;;;5024271;28;20435;-83
2023/05/03 12:36:49;;;;;;;3.60;1.55;;;;;;;;;;5025133;28;20429;-81
2023/05/03 12:39:22;;;;;;;3.13;1.50;;;;;;;;;;5034187;28;20441;-83
2023/05/03 12:41:57;;;;;;;5.55;1.50;;;;;;;;;;5026531;28;20437;-83
2023/05/03 12:44:30;;;;;;;5.40;1.45;;;;;;;;;;5029982;28;20433;-82
2023/05/03 12:47:03;;;;;;;4.95;1.52;;;;;;;;;;5023733;28;20554;-83
2023/05/03 12:49:36;;;;;;;5.67;1.77;;;;;;;;;;5036279;28;20497;-84
2023/05/03 12:52:03;;;;;;;5.55;1.50;;;;;;;;;;5021555;28;20417;-83
2023/05/03 12:54:33;;;;;;;10.05;2.38;;;;;;;;;;5028244;28;21426;-83
2023/05/03 12:57:03;;;;;;;4.07;1.80;;;;;;;;;;5024344;28;20462;-86
2023/05/03 12:59:31;;;;;;;5.72;1.80;;;;;;;;;;5028673;28;20437;-85
2023/05/03 13:01:59;;;;;;;5.13;1.80;;;;;;;;;;5028609;28;20440;-84
2023/05/03 13:04:32;;;;;;;3.90;1.67;;;;;;;;;;5030931;28;20409;-85
2023/05/03 13:07:00;;;;;;;3.67;1.73;;;;;;;;;;5021333;28;20448;-82
2023/05/03 13:09:33;;;;;;;4.50;1.50;;;;;;;;;;5020208;28;20429;-83
2023/05/03 13:12:02;;;;;;;3.77;1.70;;;;;;;;;;5021736;28;20487;-82
2023/05/03 13:14:30;;;;;;;6.40;1.85;;;;;;;;;;5025053;28;20429;-81
2023/05/03 13:17:00;;;;;;;4.15;1.40;;;;;;;;;;5020760;28;20496;-82
2023/05/03 13:19:33;;;;;;;6.10;1.90;;;;;;;;;;5025050;28;20894;-82
2023/05/03 13:22:06;;;;;;;4.23;1.50;;;;;;;;;;5022250;28;20425;-82
2023/05/03 13:24:34;;;;;;;3.80;1.70;;;;;;;;;;5016713;28;21110;-81
2023/05/03 13:27:03;;;;;;;5.57;1.90;;;;;;;;;;5025642;28;20463;-80
2023/05/03 13:29:36;;;;;;;6.00;2.08;;;;;;;;;;5016030;28;20425;-80
2023/05/03 13:32:09;;;;;;;4.65;1.60;;;;;;;;;;5020959;28;20429;-81
2023/05/03 13:34:37;;;;;;;3.92;1.55;;;;;;;;;;5020629;28;20429;-82
2023/05/03 13:37:10;;;;;;;5.53;1.70;;;;;;;;;;5023153;28;20437;-82
2023/05/03 13:39:38;;;;;;;6.20;1.88;;;;;;;;;;5021199;28;20425;-82
2023/05/03 13:42:12;;;;;;;6.25;1.70;;;;;;;;;;5020116;28;20437;-82
2023/05/03 13:44:46;;;;;;;3.60;1.63;;;;;;;;;;5016275;28;20429;-82
2023/05/03 13:47:14;;;;;;;4.27;1.50;;;;;;;;;;5015665;28;20425;-79
2023/05/03 13:49:42;;;;;;;4.93;1.90;;;;;;;;;;5020761;28;20433;-81
2023/05/03 13:52:11;;;;;;;5.47;1.70;;;;;;;;;;5016779;28;20452;-81
2023/05/03 13:54:42;;;;;;;4.47;1.50;;;;;;;;;;5026536;28;20431;-84
2023/05/03 13:57:14;;;;;;;4.07;1.45;;;;;;;;;;5014339;28;22170;-83
2023/05/03 13:59:46;;;;;;;4.78;1.70;;;;;;;;;;5017179;28;20441;-82
2023/05/03 14:02:19;;;;;;;4.10;1.50;;;;;;;;;;5016610;28;20798;-82
2023/05/03 14:04:53;;;;;;;4.33;1.67;;;;;;;;;;5020607;28;20425;-83
2023/05/03 14:07:21;;;;;;;6.13;1.80;;;;;;;;;;5018188;28;20434;-82
2023/05/03 14:09:48;;;;;;;4.80;1.60;;;;;;;;;;5025966;28;20430;-83
2023/05/03 14:12:17;;;;;;;5.88;1.60;;;;;;;;;;5022763;28;20425;-83
2023/05/03 14:14:52;;;;;;;4.50;1.65;;;;;;;;;;5027764;28;20447;-82
2023/05/03 14:17:25;;;;;;;5.57;1.77;;;;;;;;;;5019983;28;20441;-85
2023/05/03 14:19:52;;;;;;;6.60;1.90;;;;;;;;;;5033964;28;20441;-83
2023/05/03 14:22:20;;;;;;;5.45;1.77;;;;;;;;;;5015112;28;20431;-82
2023/05/03 14:24:53;;;;;;;4.07;1.63;;;;;;;;;;5020019;28;20441;-84
2023/05/03 14:27:25;;;;;;;6.47;2.45;;;;;;;;;;5014619;28;20438;-82
2023/05/03 14:30:04;;;;;;;5.80;1.67;;;;;;;;;;5033825;28;20428;-83
2023/05/03 14:32:37;;;;;;;6.57;1.80;;;;;;;;;;5028643;28;20437;-81
2023/05/03 14:35:06;;;;;;;4.40;1.88;;;;;;;;;;5020628;28;20447;-82
2023/05/03 14:37:35;;;;;;;4.80;1.60;;;;;;;;;;5019945;28;20433;-81
2023/05/03 14:40:04;;;;;;;6.27;1.70;;;;;;;;;;5003649;28;20437;-82
2023/05/03 14:42:33;;;;;;;5.63;1.50;;;;;;;;;;5018136;28;20437;-81
2023/05/03 14:45:01;;;;;;;3.53;1.60;;;;;;;;;;5015972;28;20428;-82
2023/05/03 14:47:34;;;;;;;5.72;1.92;;;;;;;;;;5018961;28;20834;-82
2023/05/03 14:50:08;;;;;;;6.47;1.90;;;;;;;;;;5017106;28;20440;-82
2023/05/03 14:52:41;;;;;;;8.35;1.92;;;;;;;;;;5024104;28;20757;-82
2023/05/03 14:55:09;;;;;;;4.17;1.50;;;;;;;;;;5034249;28;20437;-81
2023/05/03 14:57:43;;;;;;;5.57;1.73;;;;;;;;;;5036234;28;20803;-81
2023/05/03 15:00:13;;;;;;;5.68;1.90;;;;;;;;;;5032502;28;20893;-82
2023/05/03 15:02:46;;;;;;;4.28;1.70;;;;;;;;;;5035912;28;20991;-81
2023/05/03 15:05:18;;;;;;;3.92;1.60;;;;;;;;;;5037687;28;20434;-80
2023/05/03 15:07:51;;;;;;;4.18;1.67;;;;;;;;;;5037580;28;20435;-81